createdAt,value
2023-04-21T00:01:46.276Z,7.68
2023-04-21T00:04:13.990Z,5.82
2023-04-21T00:06:41.732Z,7.78
2023-04-21T00:09:09.165Z,7.20
2023-04-21T00:11:36.924Z,11.80
2023-04-21T00:14:04.155Z,8.63
2023-04-21T00:16:31.826Z,7.97
2023-04-21T00:18:59.471Z,8.77
2023-04-21T00:21:27.053Z,10.88
2023-04-21T00:23:54.292Z,10.32
2023-04-21T00:26:21.807Z,6.72
2023-04-21T00:28:50.733Z,7.13
2023-04-21T00:31:18.279Z,8.48
2023-04-21T00:33:45.621Z,10.57
2023-04-21T00:36:13.087Z,13.02
2023-04-21T00:38:40.269Z,5.93
2023-04-21T00:41:09.016Z,8.23
2023-04-21T00:43:58.402Z,6.95
2023-04-21T00:46:26.101Z,8.45
2023-04-21T00:48:53.949Z,7.30
2023-04-21T00:51:21.836Z,6.40
2023-04-21T00:53:50.881Z,8.93
2023-04-21T00:56:19.111Z,9.80
2023-04-21T00:58:46.440Z,7.47
2023-04-21T01:01:14.926Z,7.85
2023-04-21T01:03:47.767Z,6.15
2023-04-21T01:06:15.763Z,8.18
2023-04-21T01:08:44.052Z,9.13
2023-04-21T01:11:12.973Z,7.93
2023-04-21T01:13:41.077Z,11.40
2023-04-21T01:16:08.877Z,10.35
2023-04-21T01:18:37.044Z,8.73
2023-04-21T01:21:06.297Z,12.73
2023-04-21T01:23:35.005Z,18.55
2023-04-21T01:26:02.888Z,8.95
2023-04-21T01:28:30.063Z,11.73
2023-04-21T01:30:57.867Z,8.95
2023-04-21T01:33:25.518Z,9.10
2023-04-21T01:35:53.015Z,6.90
2023-04-21T01:38:20.387Z,10.00
2023-04-21T01:40:51.399Z,7.72
2023-04-21T01:43:21.191Z,5.95
2023-04-21T01:45:48.767Z,7.35
2023-04-21T01:48:16.111Z,6.95
2023-04-21T01:50:43.764Z,6.35
2023-04-21T01:53:11.276Z,12.18
2023-04-21T01:55:38.798Z,9.05
2023-04-21T01:58:09.063Z,9.10
2023-04-21T02:00:36.818Z,9.13
2023-04-21T02:03:05.407Z,7.18
2023-04-21T02:05:33.139Z,8.20
2023-04-21T02:08:00.560Z,7.95
2023-04-21T02:10:28.075Z,11.80
2023-04-21T02:12:55.508Z,8.35
2023-04-21T02:15:23.054Z,11.02
2023-04-21T02:17:50.280Z,11.63
2023-04-21T02:20:17.885Z,8.57
2023-04-21T02:22:45.134Z,10.60
2023-04-21T02:25:12.722Z,10.48
2023-04-21T02:27:39.963Z,10.05
2023-04-21T02:30:07.991Z,9.13
2023-04-21T02:32:35.459Z,9.00
2023-04-21T02:35:05.535Z,13.30
2023-04-21T02:37:32.773Z,7.07
2023-04-21T02:40:00.332Z,12.57
2023-04-21T02:42:27.466Z,12.98
2023-04-21T02:44:54.961Z,7.75
2023-04-21T02:47:22.237Z,10.65
2023-04-21T02:49:49.761Z,9.13
2023-04-21T02:52:16.990Z,12.15
2023-04-21T02:54:44.455Z,14.85
2023-04-21T02:57:11.724Z,10.65
2023-04-21T02:59:40.572Z,9.57
2023-04-21T03:02:07.916Z,13.77
2023-04-21T03:04:39.472Z,14.18
2023-04-21T03:07:11.990Z,9.25
2023-04-21T03:09:40.713Z,7.50
2023-04-21T03:12:08.013Z,6.28
2023-04-21T03:14:36.817Z,7.90
2023-04-21T03:17:04.007Z,10.50
2023-04-21T03:19:33.221Z,10.57
2023-04-21T03:22:00.460Z,6.28
2023-04-21T03:24:28.313Z,9.13
2023-04-21T03:26:57.054Z,9.80
2023-04-21T03:29:24.779Z,10.73
2023-04-21T03:31:51.978Z,7.55
2023-04-21T03:34:19.748Z,8.25
2023-04-21T03:36:47.162Z,8.73
2023-04-21T03:39:20.030Z,12.35
2023-04-21T03:41:48.911Z,8.90
2023-04-21T03:44:16.370Z,10.68
2023-04-21T03:46:43.546Z,9.73
2023-04-21T03:49:11.208Z,11.98
2023-04-21T03:51:38.374Z,9.30
2023-04-21T03:54:06.087Z,12.75
2023-04-21T03:56:33.242Z,12.50
2023-04-21T03:59:00.944Z,10.98
2023-04-21T04:01:28.125Z,11.95
2023-04-21T04:03:56.042Z,13.65
2023-04-21T04:06:23.314Z,11.15
2023-04-21T04:08:50.779Z,15.13
2023-04-21T04:11:17.984Z,13.45
2023-04-21T04:13:45.594Z,10.10
2023-04-21T04:16:12.816Z,10.70
2023-04-21T04:18:40.404Z,10.38
2023-04-21T04:21:08.271Z,8.10
2023-04-21T04:23:35.789Z,10.80
2023-04-21T04:26:05.787Z,12.90
2023-04-21T04:28:33.791Z,8.85
2023-04-21T04:31:01.202Z,7.47
2023-04-21T04:33:29.082Z,7.32
2023-04-21T04:35:56.434Z,9.18
2023-04-21T04:38:24.083Z,8.55
2023-04-21T04:40:55.296Z,5.28
2023-04-21T04:43:23.201Z,9.82
2023-04-21T04:45:50.358Z,13.13
2023-04-21T04:48:17.927Z,7.95
2023-04-21T04:50:45.408Z,7.68
2023-04-21T04:53:13.099Z,7.57
2023-04-21T04:55:40.284Z,5.40
2023-04-21T04:58:07.892Z,8.43
2023-04-21T05:00:35.112Z,6.68
2023-04-21T05:03:02.700Z,11.40
2023-04-21T05:05:30.087Z,7.07
2023-04-21T05:07:58.061Z,5.55
2023-04-21T05:10:25.561Z,7.82
2023-04-21T05:12:53.075Z,10.57
2023-04-21T05:15:20.329Z,6.65
2023-04-21T05:17:47.825Z,4.93
2023-04-21T05:20:15.424Z,11.57
2023-04-21T05:22:42.896Z,5.85
2023-04-21T05:25:15.974Z,6.68
2023-04-21T05:27:43.744Z,5.90
2023-04-21T05:30:11.531Z,7.72
2023-04-21T05:32:39.144Z,9.90
2023-04-21T05:35:06.787Z,10.10
2023-04-21T05:37:34.366Z,5.38
2023-04-21T05:40:01.549Z,8.38
2023-04-21T05:42:29.137Z,8.70
2023-04-21T05:44:56.352Z,8.73
2023-04-21T05:47:23.899Z,7.32
2023-04-21T05:49:54.158Z,7.18
2023-04-21T05:52:21.979Z,8.00
2023-04-21T05:54:49.291Z,8.68
2023-04-21T05:57:17.852Z,10.82
2023-04-21T05:59:45.113Z,6.50
2023-04-21T06:02:12.952Z,13.52
2023-04-21T06:04:40.495Z,8.90
2023-04-21T06:07:10.439Z,10.05
2023-04-21T06:09:38.374Z,10.13
2023-04-21T06:12:06.353Z,4.85
2023-04-21T06:14:33.781Z,10.27
2023-04-21T06:17:01.278Z,10.18
2023-04-21T06:19:28.471Z,7.28
2023-04-21T06:21:57.197Z,6.40
2023-04-21T06:24:27.135Z,7.47
2023-04-21T06:26:54.585Z,5.57
2023-04-21T06:29:21.740Z,8.45
2023-04-21T06:31:49.302Z,6.95
2023-04-21T06:34:16.620Z,9.73
2023-04-21T06:36:44.194Z,9.65
2023-04-21T06:39:11.492Z,10.02
2023-04-21T06:41:38.941Z,11.98
2023-04-21T06:44:06.260Z,8.27
2023-04-21T06:46:33.790Z,7.95
2023-04-21T06:49:01.095Z,8.40
2023-04-21T06:51:28.730Z,4.78
2023-04-21T06:53:56.001Z,6.90
2023-04-21T06:56:23.442Z,9.07
2023-04-21T06:58:50.718Z,6.82
2023-04-21T07:01:18.299Z,8.30
2023-04-21T07:03:45.992Z,4.55
2023-04-21T07:06:13.598Z,6.97
2023-04-21T07:08:41.530Z,8.63
2023-04-21T07:11:09.113Z,7.57
2023-04-21T07:13:36.390Z,6.70
2023-04-21T07:16:04.262Z,5.53
2023-04-21T07:18:32.656Z,8.52
2023-04-21T07:21:01.125Z,7.60
2023-04-21T07:23:28.478Z,6.22
2023-04-21T07:25:59.120Z,7.32
2023-04-21T07:28:26.730Z,6.25
2023-04-21T07:30:54.259Z,5.53
2023-04-21T07:33:21.516Z,6.97
2023-04-21T07:35:49.213Z,7.32
2023-04-21T07:38:16.398Z,10.10
2023-04-21T07:40:43.989Z,5.18
2023-04-21T07:43:11.152Z,7.65
2023-04-21T07:45:38.639Z,7.07
2023-04-21T07:48:07.652Z,6.28
2023-04-21T07:50:37.936Z,5.75
2023-04-21T07:53:05.499Z,8.57
2023-04-21T07:55:33.043Z,4.82
2023-04-21T07:58:00.253Z,7.20
2023-04-21T08:00:27.765Z,4.13
2023-04-21T08:02:55.150Z,4.43
2023-04-21T08:05:22.884Z,5.63
2023-04-21T08:07:50.440Z,5.72
2023-04-21T08:10:17.956Z,5.47
2023-04-21T08:12:45.418Z,5.07
2023-04-21T08:15:13.000Z,9.88
2023-04-21T08:17:40.235Z,9.82
2023-04-21T08:20:08.578Z,5.00
2023-04-21T08:22:36.649Z,11.90
2023-04-21T08:25:05.735Z,5.85
2023-04-21T08:27:32.938Z,5.68
2023-04-21T08:30:00.583Z,7.80
2023-04-21T08:32:27.836Z,5.22
2023-04-21T08:34:55.589Z,4.38
2023-04-21T08:37:23.449Z,8.55
2023-04-21T08:39:51.013Z,4.85
2023-04-21T08:42:18.987Z,6.72
2023-04-21T08:44:47.269Z,7.78
2023-04-21T08:47:15.884Z,5.63
2023-04-21T08:49:45.304Z,6.07
2023-04-21T08:52:14.470Z,4.20
2023-04-21T08:54:42.805Z,5.22
2023-04-21T08:57:15.208Z,3.83
2023-04-21T08:59:45.081Z,6.15
2023-04-21T09:02:15.570Z,5.75
2023-04-21T09:04:43.381Z,5.70
2023-04-21T09:07:11.811Z,6.45
2023-04-21T09:09:58.278Z,4.32
2023-04-21T09:12:25.529Z,4.82
2023-04-21T09:14:53.128Z,10.73
2023-04-21T09:17:27.545Z,5.30
2023-04-21T09:19:55.029Z,6.60
2023-04-21T09:22:27.548Z,5.30
2023-04-21T09:25:02.535Z,14.40
2023-04-21T09:27:29.857Z,18.48
2023-04-21T09:30:03.860Z,12.82
2023-04-21T09:32:36.836Z,4.72
2023-04-21T09:35:04.873Z,9.20
2023-04-21T09:37:36.113Z,8.85
2023-04-21T09:40:05.156Z,8.55
2023-04-21T09:42:35.467Z,7.28
2023-04-21T09:47:40.499Z,3.65
2023-04-21T09:50:12.538Z,4.32
2023-04-21T09:52:42.170Z,6.22
2023-04-21T09:55:13.658Z,6.78
2023-04-21T09:57:43.098Z,5.80
2023-04-21T10:00:12.538Z,7.55
2023-04-21T10:02:45.466Z,7.72
2023-04-21T10:05:13.157Z,4.82
2023-04-21T10:07:40.574Z,4.90
2023-04-21T10:10:16.787Z,6.85
2023-04-21T10:12:44.846Z,5.15
2023-04-21T10:15:31.818Z,5.32
2023-04-21T10:18:21.824Z,4.93
2023-04-21T10:21:09.017Z,5.70
2023-04-21T10:23:37.622Z,7.00
2023-04-21T10:26:07.688Z,5.43
2023-04-21T10:28:55.127Z,4.78
2023-04-21T10:31:27.191Z,7.50
2023-04-21T10:34:07.501Z,8.55
2023-04-21T10:36:47.316Z,7.78
2023-04-21T10:39:53.252Z,2.95
2023-04-21T10:42:28.419Z,3.78
2023-04-21T10:44:58.590Z,8.73
2023-04-21T10:47:29.517Z,6.63
2023-04-21T10:49:58.290Z,5.95
2023-04-21T10:52:35.947Z,6.63
2023-04-21T10:55:10.682Z,4.78
2023-04-21T10:57:43.359Z,4.22
2023-04-21T11:00:12.560Z,7.85
2023-04-21T11:02:42.545Z,8.20
2023-04-21T11:05:11.785Z,4.90
2023-04-21T11:07:39.585Z,4.75
2023-04-21T11:10:08.498Z,4.53
2023-04-21T11:12:40.491Z,5.13
2023-04-21T11:15:13.318Z,4.07
2023-04-21T11:17:43.581Z,5.72
2023-04-21T11:20:11.306Z,18.08
2023-04-21T11:22:39.071Z,4.15
2023-04-21T11:25:16.409Z,4.40
2023-04-21T11:27:53.914Z,8.82
2023-04-21T11:30:21.542Z,9.85
2023-04-21T11:32:56.098Z,4.88
2023-04-21T11:35:23.467Z,6.28
2023-04-21T11:37:52.198Z,10.80
2023-04-21T11:40:19.678Z,9.38
2023-04-21T11:42:47.209Z,4.25
2023-04-21T11:45:22.255Z,4.40
2023-04-21T11:47:50.363Z,2.67
2023-04-21T11:50:34.313Z,4.78
2023-04-21T11:53:02.996Z,5.93
2023-04-21T11:55:30.273Z,6.25
2023-04-21T11:57:57.958Z,6.32
2023-04-21T12:00:31.426Z,5.47
2023-04-21T12:02:59.159Z,6.88
2023-04-21T12:05:35.997Z,4.93
2023-04-21T12:08:06.526Z,6.18
2023-04-21T12:10:34.012Z,3.78
2023-04-21T12:13:01.952Z,6.82
2023-04-21T12:15:30.571Z,5.72
2023-04-21T12:17:58.134Z,3.50
2023-04-21T12:20:28.514Z,4.95
2023-04-21T12:22:56.664Z,4.85
2023-04-21T12:25:25.256Z,7.80
2023-04-21T12:27:54.475Z,4.40
2023-04-21T12:30:22.039Z,3.25
2023-04-21T12:32:49.477Z,5.20
2023-04-21T12:35:17.208Z,4.28
2023-04-21T12:37:45.143Z,3.83
2023-04-21T12:40:12.720Z,5.65
2023-04-21T12:42:39.923Z,4.47
2023-04-21T12:45:07.949Z,5.07
2023-04-21T12:47:37.161Z,8.70
2023-04-21T12:50:05.447Z,9.15
2023-04-21T12:52:32.612Z,5.32
2023-04-21T12:55:00.171Z,4.75
2023-04-21T12:57:27.535Z,2.10
2023-04-21T12:59:56.030Z,12.07
2023-04-21T13:02:23.412Z,10.50
2023-04-21T13:04:51.032Z,4.90
2023-04-21T13:07:21.383Z,3.95
2023-04-21T13:09:48.968Z,6.30
2023-04-21T13:12:16.513Z,5.63
2023-04-21T13:14:44.119Z,6.07
2023-04-21T13:17:11.429Z,4.05
2023-04-21T13:19:38.973Z,5.45
2023-04-21T13:22:06.149Z,7.55
2023-04-21T13:24:34.070Z,5.20
2023-04-21T13:27:04.452Z,2.67
2023-04-21T13:29:34.528Z,5.03
2023-04-21T13:32:03.308Z,4.72
2023-04-21T13:34:33.428Z,3.95
2023-04-21T13:37:01.726Z,3.83
2023-04-21T13:39:29.420Z,3.88
2023-04-21T13:41:56.796Z,4.80
2023-04-21T13:44:24.558Z,5.30
2023-04-21T13:46:53.963Z,6.25
2023-04-21T13:49:21.536Z,6.82
2023-04-21T13:51:48.892Z,4.82
2023-04-21T13:54:16.575Z,4.45
2023-04-21T13:56:43.847Z,7.25
2023-04-21T13:59:11.396Z,1.77
2023-04-21T14:01:38.753Z,4.88
2023-04-21T14:04:07.003Z,3.35
2023-04-21T14:06:34.430Z,2.78
2023-04-21T14:09:01.953Z,5.72
2023-04-21T14:11:29.302Z,1.65
2023-04-21T14:14:09.149Z,3.38
2023-04-21T14:16:38.714Z,3.95
2023-04-21T14:19:06.973Z,4.47
2023-04-21T14:21:34.792Z,1.25
2023-04-21T14:24:02.504Z,2.72
2023-04-21T14:26:29.808Z,2.67
2023-04-21T14:28:57.353Z,1.65
2023-04-21T14:31:24.855Z,2.15
2023-04-21T14:33:52.427Z,2.28
2023-04-21T14:36:19.686Z,1.00
2023-04-21T14:38:47.249Z,2.00
2023-04-21T14:41:14.714Z,1.95
2023-04-21T14:43:42.229Z,3.53
2023-04-21T14:46:09.569Z,1.60
2023-04-21T14:48:37.108Z,1.75
2023-04-21T14:51:06.193Z,2.45
2023-04-21T14:53:33.778Z,1.42
2023-04-21T14:56:01.005Z,1.75
2023-04-21T14:58:28.552Z,0.93
2023-04-21T15:00:56.445Z,3.80
2023-04-21T15:03:24.297Z,1.20
2023-04-21T15:05:51.813Z,1.88
2023-04-21T15:08:19.516Z,2.50
2023-04-21T15:10:47.727Z,1.60
2023-04-21T15:13:15.326Z,1.08
2023-04-21T15:15:42.706Z,0.45
2023-04-21T15:18:10.648Z,1.20
2023-04-21T15:20:45.380Z,0.85
2023-04-21T15:23:13.538Z,1.42
2023-04-21T15:25:40.963Z,0.65
2023-04-21T15:28:08.825Z,2.47
2023-04-21T15:30:36.251Z,4.68
2023-04-21T15:33:03.940Z,1.92
2023-04-21T15:35:31.242Z,1.63
2023-04-21T15:37:58.806Z,2.75
2023-04-21T15:40:26.282Z,1.10
2023-04-21T15:42:53.981Z,0.68
2023-04-21T15:45:21.262Z,0.20
2023-04-21T15:47:48.825Z,0.93
2023-04-21T15:50:16.361Z,1.02
2023-04-21T15:52:44.421Z,1.90
2023-04-21T15:55:12.228Z,0.73
2023-04-21T15:57:39.881Z,0.60
2023-04-21T16:00:10.621Z,2.33
2023-04-21T16:02:38.434Z,1.65
2023-04-21T16:05:06.452Z,1.08
2023-04-21T16:07:34.262Z,3.00
2023-04-21T16:10:01.457Z,0.40
2023-04-21T16:12:29.055Z,0.55
2023-04-21T16:15:04.023Z,0.65
2023-04-21T16:17:37.326Z,2.33
2023-04-21T16:20:05.776Z,1.08
2023-04-21T16:22:33.473Z,0.70
2023-04-21T16:25:01.798Z,3.83
2023-04-21T16:27:29.434Z,2.00
2023-04-21T16:29:56.779Z,1.13
2023-04-21T16:32:24.500Z,0.57
2023-04-21T16:34:51.984Z,3.08
2023-04-21T16:37:19.637Z,2.15
2023-04-21T16:39:46.847Z,2.20
2023-04-21T16:42:14.443Z,3.53
2023-04-21T16:44:41.779Z,2.20
2023-04-21T16:47:09.352Z,1.08
2023-04-21T16:49:36.669Z,2.17
2023-04-21T16:52:04.199Z,1.58
2023-04-21T16:54:31.507Z,2.20
2023-04-21T16:56:59.024Z,2.40
2023-04-21T16:59:26.201Z,1.30
2023-04-21T17:01:53.750Z,1.00
2023-04-21T17:04:21.140Z,2.42
2023-04-21T17:06:48.703Z,0.70
2023-04-21T17:09:16.198Z,1.23
2023-04-21T17:11:45.955Z,0.35
2023-04-21T17:14:13.214Z,2.13
2023-04-21T17:16:40.918Z,1.10
2023-04-21T17:19:08.114Z,1.40
2023-04-21T17:21:35.968Z,2.03
2023-04-21T17:24:03.242Z,1.05
2023-04-21T17:26:30.824Z,0.55
2023-04-21T17:28:58.044Z,1.45
2023-04-21T17:31:29.427Z,2.58
2023-04-21T17:33:57.398Z,1.48
2023-04-21T17:36:27.602Z,1.77
2023-04-21T17:38:55.712Z,1.60
2023-04-21T17:41:26.687Z,1.50
2023-04-21T17:43:57.215Z,1.83
2023-04-21T17:46:25.483Z,1.13
2023-04-21T17:48:52.822Z,1.83
2023-04-21T17:51:20.514Z,2.33
2023-04-21T17:53:47.733Z,2.17
2023-04-21T17:56:15.227Z,1.15
2023-04-21T17:58:42.501Z,1.13
2023-04-21T18:01:10.012Z,1.10
2023-04-21T18:03:37.942Z,1.27
2023-04-21T18:06:05.889Z,1.23
2023-04-21T18:08:33.163Z,4.97
2023-04-21T18:11:00.867Z,1.48
2023-04-21T18:13:28.081Z,1.73
2023-04-21T18:15:55.699Z,3.08
2023-04-21T18:18:23.001Z,2.55
2023-04-21T18:20:50.612Z,1.42
2023-04-21T18:23:17.799Z,2.47
2023-04-21T18:25:47.002Z,2.25
2023-04-21T18:28:14.480Z,1.45
2023-04-21T18:30:42.322Z,1.95
2023-04-21T18:33:11.786Z,1.70
2023-04-21T18:35:41.256Z,1.88
2023-04-21T18:38:10.583Z,4.47
2023-04-21T18:40:38.220Z,2.05
2023-04-21T18:43:05.614Z,2.40
2023-04-21T18:45:34.064Z,2.85
2023-04-21T18:48:01.381Z,1.77
2023-04-21T18:50:29.077Z,1.35
2023-04-21T18:52:56.502Z,1.95
2023-04-21T18:55:24.059Z,1.23
2023-04-21T18:57:51.320Z,2.25
2023-04-21T19:00:19.172Z,0.90
2023-04-21T19:02:48.868Z,1.90
2023-04-21T19:05:17.104Z,1.63
2023-04-21T19:07:44.389Z,1.80
2023-04-21T19:10:11.996Z,2.08
2023-04-21T19:12:39.596Z,1.33
2023-04-21T19:15:07.692Z,1.42
2023-04-21T19:17:35.009Z,1.75
2023-04-21T19:20:02.713Z,1.42
2023-04-21T19:22:32.077Z,1.88
2023-04-21T19:25:00.956Z,1.77
2023-04-21T19:27:30.076Z,1.70
2023-04-21T19:29:58.822Z,1.30
2023-04-21T19:32:26.403Z,2.75
2023-04-21T19:34:54.062Z,2.28
2023-04-21T19:37:21.477Z,2.95
2023-04-21T19:39:48.999Z,3.42
2023-04-21T19:42:16.212Z,2.60
2023-04-21T19:44:43.893Z,3.42
2023-04-21T19:47:11.172Z,2.47
2023-04-21T19:49:38.692Z,2.70
2023-04-21T19:52:06.137Z,6.07
2023-04-21T19:54:33.669Z,5.15
2023-04-21T19:57:01.800Z,3.65
2023-04-21T19:59:29.288Z,4.10
2023-04-21T20:01:56.866Z,4.45
2023-04-21T20:04:24.562Z,4.15
2023-04-21T20:06:52.030Z,4.05
2023-04-21T20:09:19.519Z,4.50
2023-04-21T20:11:46.862Z,4.22
2023-04-21T20:14:14.353Z,6.38
2023-04-21T20:16:43.083Z,5.18
2023-04-21T20:19:11.554Z,3.90
2023-04-21T20:21:39.202Z,4.40
2023-04-21T20:24:08.639Z,4.85
2023-04-21T20:26:37.003Z,3.70
2023-04-21T20:29:04.512Z,5.40
2023-04-21T20:31:31.880Z,5.65
2023-04-21T20:33:59.362Z,4.88
2023-04-21T20:36:27.654Z,4.20
2023-04-21T20:38:57.675Z,4.38
2023-04-21T20:41:24.853Z,6.72
2023-04-21T20:43:52.924Z,3.97
2023-04-21T20:46:20.190Z,4.00
2023-04-21T20:48:47.688Z,3.95
2023-04-21T20:51:14.861Z,4.25
2023-04-21T20:53:42.376Z,3.55
2023-04-21T20:56:09.575Z,3.17
2023-04-21T20:58:37.119Z,4.25
2023-04-21T21:01:04.407Z,4.28
2023-04-21T21:03:32.168Z,2.80
2023-04-21T21:05:59.509Z,3.00
2023-04-21T21:08:28.119Z,3.67
2023-04-21T21:10:55.442Z,3.83
2023-04-21T21:13:22.971Z,4.43
2023-04-21T21:15:50.300Z,3.22
2023-04-21T21:18:17.865Z,2.78
2023-04-21T21:20:45.167Z,3.58
2023-04-21T21:23:12.796Z,3.03
2023-04-21T21:25:40.064Z,4.00
2023-04-21T21:28:07.537Z,7.10
2023-04-21T21:30:34.827Z,2.58
2023-04-21T21:33:02.432Z,7.05
2023-04-21T21:35:29.600Z,2.67
2023-04-21T21:37:57.277Z,3.08
2023-04-21T21:40:24.474Z,2.83
2023-04-21T21:42:51.954Z,4.00
2023-04-21T21:45:19.164Z,2.83
2023-04-21T21:47:46.711Z,4.15
2023-04-21T21:50:13.891Z,3.10
2023-04-21T21:52:41.443Z,3.72
2023-04-21T21:55:09.087Z,5.78
2023-04-21T21:57:37.019Z,2.08
2023-04-21T22:00:08.237Z,2.17
2023-04-21T22:02:36.332Z,2.53
2023-04-21T22:05:06.357Z,2.22
2023-04-21T22:07:35.448Z,2.03
2023-04-21T22:10:03.740Z,4.03
2023-04-21T22:12:33.060Z,2.85
2023-04-21T22:15:00.411Z,4.50
2023-04-21T22:17:29.573Z,4.07
2023-04-21T22:19:57.841Z,3.28
2023-04-21T22:22:25.396Z,3.72
2023-04-21T22:24:52.633Z,2.47
2023-04-21T22:27:20.093Z,2.08
2023-04-21T22:29:47.295Z,2.35
2023-04-21T22:32:15.217Z,2.88
2023-04-21T22:34:42.453Z,3.17
2023-04-21T22:37:10.327Z,1.45
2023-04-21T22:39:38.604Z,2.17
2023-04-21T22:42:06.962Z,4.32
2023-04-21T22:44:34.256Z,3.80
2023-04-21T22:47:01.815Z,1.98
2023-04-21T22:49:29.227Z,2.42
2023-04-21T22:51:56.792Z,2.00
2023-04-21T22:54:23.964Z,1.60
2023-04-21T22:56:51.821Z,2.42
2023-04-21T22:59:19.058Z,1.75
2023-04-21T23:01:46.557Z,1.85
2023-04-21T23:04:14.049Z,3.03
2023-04-21T23:06:43.652Z,5.05
2023-04-21T23:09:11.243Z,2.60
2023-04-21T23:11:38.740Z,2.85
2023-04-21T23:14:05.939Z,1.77
2023-04-21T23:16:33.419Z,1.17
2023-04-21T23:19:00.716Z,2.00
2023-04-21T23:21:28.779Z,2.00
2023-04-21T23:23:55.970Z,2.67
2023-04-21T23:26:23.525Z,3.00
2023-04-21T23:28:50.732Z,2.15
2023-04-21T23:31:18.283Z,2.42
2023-04-21T23:33:45.578Z,3.33
2023-04-21T23:36:13.168Z,3.90
2023-04-21T23:38:40.401Z,4.68
2023-04-21T23:41:07.865Z,3.58
2023-04-21T23:43:37.206Z,4.63
2023-04-21T23:46:04.761Z,4.97
2023-04-21T23:48:32.115Z,7.65
2023-04-21T23:50:59.745Z,4.85
2023-04-21T23:53:27.125Z,5.07
2023-04-21T23:55:54.725Z,5.88
2023-04-21T23:58:22.014Z,6.55
